sensor_id;sensor_type;location;lat;lon;timestamp;pressure;altitude;pressure_sealevel;temperature;humidity
76434;BME280;65265;53.200;6.080;2023-03-01T00:02:17;103328.59;;;-1.47;94.46
76434;BME280;65265;53.200;6.080;2023-03-01T00:07:09;103315.25;;;-1.53;94.44
76434;BME280;65265;53.200;6.080;2023-03-01T00:12:05;103321.94;;;-1.47;94.45
76434;BME280;65265;53.200;6.080;2023-03-01T00:17:01;103324.09;;;-1.50;94.43
76434;BME280;65265;53.200;6.080;2023-03-01T00:21:53;103308.44;;;-1.54;94.41
76434;BME280;65265;53.200;6.080;2023-03-01T00:26:46;103315.41;;;-1.59;94.23
76434;BME280;65265;53.200;6.080;2023-03-01T00:31:40;103319.31;;;-1.61;94.08
76434;BME280;65265;53.200;6.080;2023-03-01T00:36:36;103318.41;;;-1.61;94.55
76434;BME280;65265;53.200;6.080;2023-03-01T00:41:29;103311.59;;;-1.62;94.25
76434;BME280;65265;53.200;6.080;2023-03-01T00:46:22;103311.72;;;-1.68;94.41
76434;BME280;65265;53.200;6.080;2023-03-01T00:51:21;103322.66;;;-1.67;94.71
76434;BME280;65265;53.200;6.080;2023-03-01T00:56:14;103321.50;;;-1.76;93.82
76434;BME280;65265;53.200;6.080;2023-03-01T01:01:08;103324.13;;;-1.82;94.29
76434;BME280;65265;53.200;6.080;2023-03-01T01:06:14;103319.63;;;-1.84;93.92
76434;BME280;65265;53.200;6.080;2023-03-01T01:11:12;103306.44;;;-1.96;93.69
76434;BME280;65265;53.200;6.080;2023-03-01T01:16:06;103311.09;;;-1.99;93.97
76434;BME280;65265;53.200;6.080;2023-03-01T01:21:03;103296.41;;;-1.96;94.42
76434;BME280;65265;53.200;6.080;2023-03-01T01:25:57;103305.63;;;-1.89;94.71
76434;BME280;65265;53.200;6.080;2023-03-01T01:30:51;103296.31;;;-1.90;94.79
76434;BME280;65265;53.200;6.080;2023-03-01T01:35:45;103290.50;;;-1.96;94.19
76434;BME280;65265;53.200;6.080;2023-03-01T01:40:43;103275.44;;;-2.16;93.31
76434;BME280;65265;53.200;6.080;2023-03-01T01:45:36;103276.84;;;-2.18;93.95
76434;BME280;65265;53.200;6.080;2023-03-01T01:50:34;103268.84;;;-2.15;94.11
76434;BME280;65265;53.200;6.080;2023-03-01T01:55:30;103258.38;;;-2.18;93.96
76434;BME280;65265;53.200;6.080;2023-03-01T02:00:25;103250.69;;;-2.20;93.73
76434;BME280;65265;53.200;6.080;2023-03-01T02:05:25;103233.31;;;-2.38;92.73
76434;BME280;65265;53.200;6.080;2023-03-01T02:10:21;103238.13;;;-2.39;93.35
76434;BME280;65265;53.200;6.080;2023-03-01T02:15:16;103236.84;;;-2.42;93.49
76434;BME280;65265;53.200;6.080;2023-03-01T02:20:19;103239.94;;;-2.38;93.20
76434;BME280;65265;53.200;6.080;2023-03-01T02:25:37;103234.03;;;-2.38;93.11
76434;BME280;65265;53.200;6.080;2023-03-01T02:30:35;103227.59;;;-2.37;93.18
76434;BME280;65265;53.200;6.080;2023-03-01T02:35:48;103220.78;;;-2.38;92.73
76434;BME280;65265;53.200;6.080;2023-03-01T02:40:43;103221.81;;;-2.42;92.77
76434;BME280;65265;53.200;6.080;2023-03-01T02:45:47;103207.28;;;-2.45;92.70
76434;BME280;65265;53.200;6.080;2023-03-01T02:50:55;103211.81;;;-2.42;92.05
76434;BME280;65265;53.200;6.080;2023-03-01T02:55:51;103212.81;;;-2.47;92.43
76434;BME280;65265;53.200;6.080;2023-03-01T03:00:46;103183.91;;;-2.58;91.90
76434;BME280;65265;53.200;6.080;2023-03-01T03:05:40;103206.72;;;-2.62;91.56
76434;BME280;65265;53.200;6.080;2023-03-01T03:10:34;103197.66;;;-2.74;92.15
76434;BME280;65265;53.200;6.080;2023-03-01T03:15:28;103207.75;;;-2.67;92.52
76434;BME280;65265;53.200;6.080;2023-03-01T03:20:25;103193.75;;;-2.72;91.95
76434;BME280;65265;53.200;6.080;2023-03-01T03:25:21;103201.06;;;-2.73;92.27
76434;BME280;65265;53.200;6.080;2023-03-01T03:30:19;103188.34;;;-2.75;92.37
76434;BME280;65265;53.200;6.080;2023-03-01T03:35:12;103196.56;;;-2.76;92.62
76434;BME280;65265;53.200;6.080;2023-03-01T03:40:08;103194.44;;;-2.73;92.78
76434;BME280;65265;53.200;6.080;2023-03-01T03:45:06;103202.97;;;-2.78;92.08
76434;BME280;65265;53.200;6.080;2023-03-01T03:49:59;103183.16;;;-2.89;92.16
76434;BME280;65265;53.200;6.080;2023-03-01T03:54:52;103191.00;;;-2.93;92.53
76434;BME280;65265;53.200;6.080;2023-03-01T03:59:48;103195.47;;;-2.90;92.23
76434;BME280;65265;53.200;6.080;2023-03-01T04:04:40;103201.78;;;-2.87;92.91
76434;BME280;65265;53.200;6.080;2023-03-01T04:09:32;103189.09;;;-2.88;92.56
76434;BME280;65265;53.200;6.080;2023-03-01T04:14:25;103181.69;;;-2.94;92.70
76434;BME280;65265;53.200;6.080;2023-03-01T04:19:20;103167.56;;;-2.93;93.03
76434;BME280;65265;53.200;6.080;2023-03-01T04:24:13;103180.56;;;-2.96;93.26
76434;BME280;65265;53.200;6.080;2023-03-01T04:29:06;103178.06;;;-2.96;93.50
76434;BME280;65265;53.200;6.080;2023-03-01T04:33:59;103185.56;;;-2.96;92.49
76434;BME280;65265;53.200;6.080;2023-03-01T04:38:54;103180.50;;;-3.03;91.94
76434;BME280;65265;53.200;6.080;2023-03-01T04:43:47;103165.09;;;-3.18;92.09
76434;BME280;65265;53.200;6.080;2023-03-01T04:48:41;103168.38;;;-3.12;92.40
76434;BME280;65265;53.200;6.080;2023-03-01T04:53:36;103173.91;;;-3.15;92.57
76434;BME280;65265;53.200;6.080;2023-03-01T04:58:30;103166.00;;;-3.18;92.96
76434;BME280;65265;53.200;6.080;2023-03-01T05:03:23;103158.41;;;-3.25;92.80
76434;BME280;65265;53.200;6.080;2023-03-01T05:08:15;103164.28;;;-3.24;93.06
76434;BME280;65265;53.200;6.080;2023-03-01T05:13:08;103163.00;;;-3.28;92.78
76434;BME280;65265;53.200;6.080;2023-03-01T05:18:04;103161.50;;;-3.33;92.75
76434;BME280;65265;53.200;6.080;2023-03-01T05:23:01;103107.81;;;-3.67;92.43
76434;BME280;65265;53.200;6.080;2023-03-01T05:27:56;103137.41;;;-3.45;92.36
76434;BME280;65265;53.200;6.080;2023-03-01T05:32:50;103131.38;;;-3.40;93.11
76434;BME280;65265;53.200;6.080;2023-03-01T05:37:48;103124.50;;;-3.35;92.79
76434;BME280;65265;53.200;6.080;2023-03-01T05:42:44;103116.00;;;-3.43;92.42
76434;BME280;65265;53.200;6.080;2023-03-01T05:47:37;103113.59;;;-3.36;93.00
76434;BME280;65265;53.200;6.080;2023-03-01T05:52:34;103116.38;;;-3.40;91.74
76434;BME280;65265;53.200;6.080;2023-03-01T05:57:29;103115.28;;;-3.42;92.13
76434;BME280;65265;53.200;6.080;2023-03-01T06:02:23;103105.22;;;-3.49;92.54
76434;BME280;65265;53.200;6.080;2023-03-01T06:07:16;103099.41;;;-3.55;92.89
76434;BME280;65265;53.200;6.080;2023-03-01T06:12:09;103097.72;;;-3.61;92.55
76434;BME280;65265;53.200;6.080;2023-03-01T06:17:04;103108.63;;;-3.61;93.06
76434;BME280;65265;53.200;6.080;2023-03-01T06:21:56;103106.63;;;-3.63;92.34
76434;BME280;65265;53.200;6.080;2023-03-01T06:26:53;103117.50;;;-3.63;92.62
76434;BME280;65265;53.200;6.080;2023-03-01T06:31:46;103118.50;;;-3.68;92.59
76434;BME280;65265;53.200;6.080;2023-03-01T06:36:41;103118.03;;;-3.65;93.13
76434;BME280;65265;53.200;6.080;2023-03-01T06:41:34;103113.31;;;-3.69;93.07
76434;BME280;65265;53.200;6.080;2023-03-01T06:46:26;103119.81;;;-3.77;91.64
76434;BME280;65265;53.200;6.080;2023-03-01T06:51:19;103130.19;;;-3.74;92.15
76434;BME280;65265;53.200;6.080;2023-03-01T06:56:16;103128.41;;;-3.75;92.47
76434;BME280;65265;53.200;6.080;2023-03-01T07:01:10;103127.53;;;-3.75;92.76
76434;BME280;65265;53.200;6.080;2023-03-01T07:06:04;103136.41;;;-3.65;93.11
76434;BME280;65265;53.200;6.080;2023-03-01T07:10:57;103135.44;;;-3.60;93.21
76434;BME280;65265;53.200;6.080;2023-03-01T07:15:51;103124.72;;;-3.59;93.02
76434;BME280;65265;53.200;6.080;2023-03-01T07:20:44;103130.50;;;-3.53;92.57
76434;BME280;65265;53.200;6.080;2023-03-01T07:25:36;103131.00;;;-3.43;92.76
76434;BME280;65265;53.200;6.080;2023-03-01T07:30:28;103135.78;;;-3.32;92.63
76434;BME280;65265;53.200;6.080;2023-03-01T07:35:26;103139.88;;;-3.20;92.67
76434;BME280;65265;53.200;6.080;2023-03-01T07:40:19;103130.69;;;-3.14;92.55
76434;BME280;65265;53.200;6.080;2023-03-01T07:45:11;103134.53;;;-2.91;92.81
76434;BME280;65265;53.200;6.080;2023-03-01T07:50:04;103143.69;;;-2.72;93.01
76434;BME280;65265;53.200;6.080;2023-03-01T07:54:59;103147.09;;;-2.52;93.21
76434;BME280;65265;53.200;6.080;2023-03-01T07:59:52;103147.63;;;-2.35;93.06
76434;BME280;65265;53.200;6.080;2023-03-01T08:04:45;103138.41;;;-2.03;93.37
76434;BME280;65265;53.200;6.080;2023-03-01T08:09:38;103147.38;;;-1.52;92.23
76434;BME280;65265;53.200;6.080;2023-03-01T08:14:34;103139.28;;;-1.30;91.08
76434;BME280;65265;53.200;6.080;2023-03-01T08:19:26;103138.19;;;-1.25;90.83
76434;BME280;65265;53.200;6.080;2023-03-01T08:24:21;103152.53;;;-0.90;91.09
76434;BME280;65265;53.200;6.080;2023-03-01T08:29:14;103137.00;;;-0.60;90.36
76434;BME280;65265;53.200;6.080;2023-03-01T08:34:12;103125.22;;;0.02;88.07
76434;BME280;65265;53.200;6.080;2023-03-01T08:39:08;103114.44;;;0.03;88.36
76434;BME280;65265;53.200;6.080;2023-03-01T08:44:00;103121.72;;;0.43;87.92
76434;BME280;65265;53.200;6.080;2023-03-01T08:48:53;103112.81;;;0.75;86.84
76434;BME280;65265;53.200;6.080;2023-03-01T08:53:48;103111.22;;;0.75;87.12
76434;BME280;65265;53.200;6.080;2023-03-01T08:58:44;103125.59;;;0.76;87.95
76434;BME280;65265;53.200;6.080;2023-03-01T09:03:36;103107.25;;;0.70;88.97
76434;BME280;65265;53.200;6.080;2023-03-01T09:08:30;103113.25;;;0.93;89.61
76434;BME280;65265;53.200;6.080;2023-03-01T09:13:27;103106.34;;;1.13;89.99
76434;BME280;65265;53.200;6.080;2023-03-01T09:18:21;103112.47;;;1.45;90.35
76434;BME280;65265;53.200;6.080;2023-03-01T09:23:13;103109.19;;;1.75;90.49
76434;BME280;65265;53.200;6.080;2023-03-01T09:28:06;103108.91;;;2.03;90.41
76434;BME280;65265;53.200;6.080;2023-03-01T09:33:00;103097.91;;;2.40;90.47
76434;BME280;65265;53.200;6.080;2023-03-01T09:37:52;103102.25;;;2.72;90.15
76434;BME280;65265;53.200;6.080;2023-03-01T09:42:53;103087.03;;;3.03;89.72
76434;BME280;65265;53.200;6.080;2023-03-01T09:47:46;103086.00;;;3.25;88.14
76434;BME280;65265;53.200;6.080;2023-03-01T09:52:50;103096.69;;;3.47;86.79
76434;BME280;65265;53.200;6.080;2023-03-01T09:57:50;103096.09;;;3.73;85.81
76434;BME280;65265;53.200;6.080;2023-03-01T10:02:49;103104.63;;;3.82;84.41
76434;BME280;65265;53.200;6.080;2023-03-01T10:07:57;103093.31;;;3.87;85.44
76434;BME280;65265;53.200;6.080;2023-03-01T10:12:55;103109.88;;;3.92;84.30
76434;BME280;65265;53.200;6.080;2023-03-01T10:17:48;103096.97;;;3.98;84.27
76434;BME280;65265;53.200;6.080;2023-03-01T10:22:43;103084.31;;;3.98;82.32
76434;BME280;65265;53.200;6.080;2023-03-01T10:27:51;103078.97;;;4.12;83.22
76434;BME280;65265;53.200;6.080;2023-03-01T10:32:44;103070.69;;;4.30;81.33
76434;BME280;65265;53.200;6.080;2023-03-01T10:37:56;103066.25;;;4.53;79.42
76434;BME280;65265;53.200;6.080;2023-03-01T10:42:51;103055.53;;;4.80;80.49
76434;BME280;65265;53.200;6.080;2023-03-01T10:47:44;103045.38;;;4.97;78.98
76434;BME280;65265;53.200;6.080;2023-03-01T10:52:37;103040.28;;;5.06;79.32
76434;BME280;65265;53.200;6.080;2023-03-01T10:57:37;103052.50;;;5.18;78.98
76434;BME280;65265;53.200;6.080;2023-03-01T11:02:35;103054.59;;;5.22;77.86
76434;BME280;65265;53.200;6.080;2023-03-01T11:07:27;103050.41;;;5.31;78.11
76434;BME280;65265;53.200;6.080;2023-03-01T11:12:21;103053.97;;;5.33;76.86
76434;BME280;65265;53.200;6.080;2023-03-01T11:17:18;103044.09;;;5.45;77.76
76434;BME280;65265;53.200;6.080;2023-03-01T11:22:20;103047.94;;;5.50;76.22
76434;BME280;65265;53.200;6.080;2023-03-01T11:27:20;103045.09;;;5.55;74.22
76434;BME280;65265;53.200;6.080;2023-03-01T11:32:13;103055.53;;;5.58;73.43
76434;BME280;65265;53.200;6.080;2023-03-01T11:37:16;103055.53;;;5.58;72.10
76434;BME280;65265;53.200;6.080;2023-03-01T11:42:19;103040.28;;;5.58;71.27
76434;BME280;65265;53.200;6.080;2023-03-01T11:47:32;103038.34;;;5.64;69.41
76434;BME280;65265;53.200;6.080;2023-03-01T11:52:39;103028.44;;;5.84;70.62
76434;BME280;65265;53.200;6.080;2023-03-01T11:57:52;103024.81;;;5.91;70.48
76434;BME280;65265;53.200;6.080;2023-03-01T12:03:13;103011.22;;;5.90;69.14
76434;BME280;65265;53.200;6.080;2023-03-01T12:08:16;102999.38;;;5.99;68.22
76434;BME280;65265;53.200;6.080;2023-03-01T12:13:25;103002.97;;;6.20;69.88
76434;BME280;65265;53.200;6.080;2023-03-01T12:18:44;102995.00;;;6.25;67.28
76434;BME280;65265;53.200;6.080;2023-03-01T12:29:20;102983.47;;;6.47;68.48
76434;BME280;65265;53.200;6.080;2023-03-01T12:34:33;102972.25;;;6.64;66.62
76434;BME280;65265;53.200;6.080;2023-03-01T12:39:44;102968.91;;;7.02;67.36
76434;BME280;65265;53.200;6.080;2023-03-01T12:44:55;102964.59;;;7.10;66.78
76434;BME280;65265;53.200;6.080;2023-03-01T12:49:54;102956.44;;;7.43;65.22
76434;BME280;65265;53.200;6.080;2023-03-01T12:54:47;102948.06;;;7.64;62.22
76434;BME280;65265;53.200;6.080;2023-03-01T12:59:51;102948.84;;;7.93;60.63
76434;BME280;65265;53.200;6.080;2023-03-01T13:05:00;102942.34;;;7.96;60.51
76434;BME280;65265;53.200;6.080;2023-03-01T13:10:11;102947.06;;;8.32;59.45
76434;BME280;65265;53.200;6.080;2023-03-01T13:15:25;102930.34;;;8.45;58.66
76434;BME280;65265;53.200;6.080;2023-03-01T13:20:19;102921.00;;;8.56;59.74
76434;BME280;65265;53.200;6.080;2023-03-01T13:25:15;102922.72;;;8.77;58.01
76434;BME280;65265;53.200;6.080;2023-03-01T13:35:46;102906.13;;;8.40;60.36
76434;BME280;65265;53.200;6.080;2023-03-01T13:40:58;102905.53;;;8.23;60.08
76434;BME280;65265;53.200;6.080;2023-03-01T13:45:51;102907.16;;;8.32;58.83
76434;BME280;65265;53.200;6.080;2023-03-01T13:50:50;102906.25;;;8.52;59.18
76434;BME280;65265;53.200;6.080;2023-03-01T13:55:45;102899.09;;;8.48;58.60
76434;BME280;65265;53.200;6.080;2023-03-01T14:00:39;102900.66;;;8.16;61.52
76434;BME280;65265;53.200;6.080;2023-03-01T14:05:31;102886.66;;;8.31;61.28
76434;BME280;65265;53.200;6.080;2023-03-01T14:10:37;102878.63;;;8.68;58.50
76434;BME280;65265;53.200;6.080;2023-03-01T14:15:36;102877.88;;;8.59;59.25
76434;BME280;65265;53.200;6.080;2023-03-01T14:20:33;102879.03;;;8.31;63.20
76434;BME280;65265;53.200;6.080;2023-03-01T14:25:34;102872.16;;;8.30;62.57
76434;BME280;65265;53.200;6.080;2023-03-01T14:30:31;102871.50;;;8.12;61.95
76434;BME280;65265;53.200;6.080;2023-03-01T14:35:27;102869.50;;;7.88;63.23
76434;BME280;65265;53.200;6.080;2023-03-01T14:40:23;102844.66;;;7.96;60.87
76434;BME280;65265;53.200;6.080;2023-03-01T14:45:18;102834.19;;;8.03;62.68
76434;BME280;65265;53.200;6.080;2023-03-01T14:50:22;102840.59;;;7.78;62.42
76434;BME280;65265;53.200;6.080;2023-03-01T14:55:17;102840.75;;;7.69;62.90
76434;BME280;65265;53.200;6.080;2023-03-01T15:00:17;102838.06;;;7.58;62.24
76434;BME280;65265;53.200;6.080;2023-03-01T15:05:23;102818.72;;;7.60;63.90
76434;BME280;65265;53.200;6.080;2023-03-01T15:10:20;102821.69;;;7.44;63.93
76434;BME280;65265;53.200;6.080;2023-03-01T15:20:33;102808.28;;;7.27;66.40
76434;BME280;65265;53.200;6.080;2023-03-01T15:25:30;102805.63;;;7.15;66.89
76434;BME280;65265;53.200;6.080;2023-03-01T15:30:27;102800.66;;;7.07;66.72
76434;BME280;65265;53.200;6.080;2023-03-01T15:35:40;102805.59;;;7.05;66.63
76434;BME280;65265;53.200;6.080;2023-03-01T15:40:33;102802.06;;;7.13;66.70
76434;BME280;65265;53.200;6.080;2023-03-01T15:45:30;102798.22;;;7.08;67.33
76434;BME280;65265;53.200;6.080;2023-03-01T15:50:26;102780.16;;;6.96;67.45
76434;BME280;65265;53.200;6.080;2023-03-01T15:55:24;102776.44;;;6.92;68.53
76434;BME280;65265;53.200;6.080;2023-03-01T16:00:20;102776.34;;;6.91;67.63
76434;BME280;65265;53.200;6.080;2023-03-01T16:05:18;102773.53;;;6.78;68.62
76434;BME280;65265;53.200;6.080;2023-03-01T16:10:12;102782.25;;;6.71;69.38
76434;BME280;65265;53.200;6.080;2023-03-01T16:15:14;102778.97;;;6.72;69.98
76434;BME280;65265;53.200;6.080;2023-03-01T16:20:08;102780.97;;;6.56;73.28
76434;BME280;65265;53.200;6.080;2023-03-01T16:25:00;102774.97;;;6.17;78.58
76434;BME280;65265;53.200;6.080;2023-03-01T16:29:53;102773.03;;;5.86;79.88
76434;BME280;65265;53.200;6.080;2023-03-01T16:34:47;102788.88;;;5.84;80.42
76434;BME280;65265;53.200;6.080;2023-03-01T16:39:40;102788.88;;;5.65;81.43
76434;BME280;65265;53.200;6.080;2023-03-01T16:44:32;102783.28;;;5.51;80.98
76434;BME280;65265;53.200;6.080;2023-03-01T16:49:24;102783.97;;;5.40;81.48
76434;BME280;65265;53.200;6.080;2023-03-01T16:54:19;102783.78;;;5.28;82.62
76434;BME280;65265;53.200;6.080;2023-03-01T16:59:11;102779.69;;;5.12;82.76
76434;BME280;65265;53.200;6.080;2023-03-01T17:04:05;102782.16;;;4.93;84.09
76434;BME280;65265;53.200;6.080;2023-03-01T17:08:57;102781.50;;;4.77;84.99
76434;BME280;65265;53.200;6.080;2023-03-01T17:13:52;102773.81;;;4.67;85.36
76434;BME280;65265;53.200;6.080;2023-03-01T17:18:46;102781.16;;;4.56;86.85
76434;BME280;65265;53.200;6.080;2023-03-01T17:23:42;102800.25;;;4.44;87.68
76434;BME280;65265;53.200;6.080;2023-03-01T17:28:36;102782.84;;;4.39;87.92
76434;BME280;65265;53.200;6.080;2023-03-01T17:33:34;102790.78;;;4.25;88.83
76434;BME280;65265;53.200;6.080;2023-03-01T17:38:26;102788.28;;;4.16;90.17
76434;BME280;65265;53.200;6.080;2023-03-01T17:43:18;102797.09;;;4.11;90.05
76434;BME280;65265;53.200;6.080;2023-03-01T17:48:10;102806.63;;;3.97;90.40
76434;BME280;65265;53.200;6.080;2023-03-01T17:53:04;102796.63;;;3.90;91.44
76434;BME280;65265;53.200;6.080;2023-03-01T17:57:59;102818.66;;;3.91;91.87
76434;BME280;65265;53.200;6.080;2023-03-01T18:02:52;102818.09;;;3.85;92.67
76434;BME280;65265;53.200;6.080;2023-03-01T18:07:44;102821.03;;;3.81;92.78
76434;BME280;65265;53.200;6.080;2023-03-01T18:12:38;102824.34;;;3.71;92.92
76434;BME280;65265;53.200;6.080;2023-03-01T18:17:29;102821.34;;;3.58;93.07
76434;BME280;65265;53.200;6.080;2023-03-01T18:22:22;102832.06;;;3.47;93.52
76434;BME280;65265;53.200;6.080;2023-03-01T18:27:14;102817.59;;;3.38;94.09
76434;BME280;65265;53.200;6.080;2023-03-01T18:32:08;102828.16;;;3.34;94.52
76434;BME280;65265;53.200;6.080;2023-03-01T18:37:01;102825.72;;;3.18;94.75
76434;BME280;65265;53.200;6.080;2023-03-01T18:41:53;102820.22;;;3.14;94.63
76434;BME280;65265;53.200;6.080;2023-03-01T18:46:45;102824.66;;;3.08;94.80
76434;BME280;65265;53.200;6.080;2023-03-01T18:51:38;102828.34;;;3.03;95.16
76434;BME280;65265;53.200;6.080;2023-03-01T18:56:32;102838.44;;;2.94;95.27
76434;BME280;65265;53.200;6.080;2023-03-01T19:01:28;102838.06;;;2.83;95.03
76434;BME280;65265;53.200;6.080;2023-03-01T19:06:21;102842.53;;;2.77;95.60
76434;BME280;65265;53.200;6.080;2023-03-01T19:11:15;102835.97;;;2.70;95.66
76434;BME280;65265;53.200;6.080;2023-03-01T19:16:10;102829.97;;;2.61;96.17
76434;BME280;65265;53.200;6.080;2023-03-01T19:21:03;102843.06;;;2.66;96.34
76434;BME280;65265;53.200;6.080;2023-03-01T19:25:59;102851.84;;;2.69;96.18
76434;BME280;65265;53.200;6.080;2023-03-01T19:30:57;102855.72;;;2.74;96.64
76434;BME280;65265;53.200;6.080;2023-03-01T19:35:49;102849.66;;;2.81;96.43
76434;BME280;65265;53.200;6.080;2023-03-01T19:40:41;102857.41;;;2.82;96.26
76434;BME280;65265;53.200;6.080;2023-03-01T19:45:33;102850.31;;;2.87;96.17
76434;BME280;65265;53.200;6.080;2023-03-01T19:50:27;102857.44;;;2.91;96.23
76434;BME280;65265;53.200;6.080;2023-03-01T19:55:20;102851.50;;;2.90;96.63
76434;BME280;65265;53.200;6.080;2023-03-01T20:00:13;102854.31;;;2.85;97.02
76434;BME280;65265;53.200;6.080;2023-03-01T20:05:07;102861.00;;;2.93;96.59
76434;BME280;65265;53.200;6.080;2023-03-01T20:10:02;102863.41;;;2.91;96.97
76434;BME280;65265;53.200;6.080;2023-03-01T20:14:54;102859.09;;;2.90;97.01
76434;BME280;65265;53.200;6.080;2023-03-01T20:19:46;102860.59;;;2.97;97.22
76434;BME280;65265;53.200;6.080;2023-03-01T20:24:38;102871.75;;;2.99;97.19
76434;BME280;65265;53.200;6.080;2023-03-01T20:29:32;102863.06;;;2.88;96.98
76434;BME280;65265;53.200;6.080;2023-03-01T20:34:25;102861.28;;;2.87;97.17
76434;BME280;65265;53.200;6.080;2023-03-01T20:39:17;102856.22;;;2.87;97.32
76434;BME280;65265;53.200;6.080;2023-03-01T20:44:10;102861.44;;;2.89;97.61
76434;BME280;65265;53.200;6.080;2023-03-01T20:49:04;102865.31;;;2.94;97.89
76434;BME280;65265;53.200;6.080;2023-03-01T20:53:56;102874.81;;;2.88;97.71
76434;BME280;65265;53.200;6.080;2023-03-01T20:58:49;102878.84;;;2.86;97.95
76434;BME280;65265;53.200;6.080;2023-03-01T21:03:41;102873.31;;;2.81;98.13
76434;BME280;65265;53.200;6.080;2023-03-01T21:08:35;102878.09;;;2.87;98.33
76434;BME280;65265;53.200;6.080;2023-03-01T21:13:28;102873.44;;;2.83;98.34
76434;BME280;65265;53.200;6.080;2023-03-01T21:18:21;102871.66;;;2.82;98.22
76434;BME280;65265;53.200;6.080;2023-03-01T21:23:14;102874.94;;;2.81;98.41
76434;BME280;65265;53.200;6.080;2023-03-01T21:28:11;102873.03;;;2.87;98.39
76434;BME280;65265;53.200;6.080;2023-03-01T21:33:04;102875.13;;;2.91;98.46
76434;BME280;65265;53.200;6.080;2023-03-01T21:37:56;102870.50;;;2.87;98.04
76434;BME280;65265;53.200;6.080;2023-03-01T21:42:48;102857.69;;;2.77;98.26
76434;BME280;65265;53.200;6.080;2023-03-01T21:47:43;102868.41;;;2.83;98.28
76434;BME280;65265;53.200;6.080;2023-03-01T21:52:35;102863.63;;;2.77;97.81
76434;BME280;65265;53.200;6.080;2023-03-01T21:57:28;102858.47;;;2.84;97.36
76434;BME280;65265;53.200;6.080;2023-03-01T22:02:19;102860.69;;;2.81;97.17
76434;BME280;65265;53.200;6.080;2023-03-01T22:07:15;102861.56;;;2.82;97.25
76434;BME280;65265;53.200;6.080;2023-03-01T22:12:07;102864.81;;;2.81;97.70
76434;BME280;65265;53.200;6.080;2023-03-01T22:16:59;102860.97;;;2.84;97.84
76434;BME280;65265;53.200;6.080;2023-03-01T22:21:52;102862.03;;;2.86;97.86
76434;BME280;65265;53.200;6.080;2023-03-01T22:26:48;102860.38;;;2.78;97.16
76434;BME280;65265;53.200;6.080;2023-03-01T22:31:41;102867.16;;;2.71;97.08
76434;BME280;65265;53.200;6.080;2023-03-01T22:36:34;102872.53;;;2.74;96.79
76434;BME280;65265;53.200;6.080;2023-03-01T22:41:30;102867.31;;;2.72;96.34
76434;BME280;65265;53.200;6.080;2023-03-01T22:46:28;102880.03;;;2.65;97.11
76434;BME280;65265;53.200;6.080;2023-03-01T22:51:24;102882.38;;;2.55;97.21
76434;BME280;65265;53.200;6.080;2023-03-01T22:56:19;102881.91;;;2.51;97.23
76434;BME280;65265;53.200;6.080;2023-03-01T23:01:12;102886.34;;;2.53;96.59
76434;BME280;65265;53.200;6.080;2023-03-01T23:06:07;102879.38;;;2.51;96.69
76434;BME280;65265;53.200;6.080;2023-03-01T23:11:00;102878.78;;;2.53;96.74
76434;BME280;65265;53.200;6.080;2023-03-01T23:15:52;102876.72;;;2.58;96.88
76434;BME280;65265;53.200;6.080;2023-03-01T23:20:45;102864.41;;;2.61;97.03
76434;BME280;65265;53.200;6.080;2023-03-01T23:25:39;102870.03;;;2.50;96.48
76434;BME280;65265;53.200;6.080;2023-03-01T23:30:31;102866.41;;;2.48;96.10
76434;BME280;65265;53.200;6.080;2023-03-01T23:35:23;102865.84;;;2.50;96.21
76434;BME280;65265;53.200;6.080;2023-03-01T23:40:15;102867.63;;;2.51;95.85
76434;BME280;65265;53.200;6.080;2023-03-01T23:45:11;102864.97;;;2.50;96.26
76434;BME280;65265;53.200;6.080;2023-03-01T23:50:04;102866.84;;;2.44;96.54
76434;BME280;65265;53.200;6.080;2023-03-01T23:54:56;102862.53;;;2.43;96.45
76434;BME280;65265;53.200;6.080;2023-03-01T23:59:48;102859.19;;;2.51;97.04
